Time;durP1;ratioP1;P1;durP2;ratioP2;P2;SDS_P1;SDS_P2;PMS_P1;PMS_P2;Temp;Humidity;BMP_temperature;BMP_pressure;BME280_temperature;BME280_humidity;BME280_pressure;Samples;Min_cycle;Max_cycle;Signal;HPM_P1;HPM_P2
2023/04/22 00:01:51;;;;;;;14.35;8.00;;;;;;;;;;5060917;28;20060;-76
2023/04/22 00:04:19;;;;;;;14.13;7.88;;;;;;;;;;5037542;28;20058;-76
2023/04/22 00:06:46;;;;;;;14.35;7.45;;;;;;;;;;5028536;28;20097;-76
2023/04/22 00:09:13;;;;;;;13.73;8.07;;;;;;;;;;5039714;28;20057;-76
2023/04/22 00:11:39;;;;;;;13.52;7.13;;;;;;;;;;5017570;28;20062;-76
2023/04/22 00:14:06;;;;;;;13.23;8.00;;;;;;;;;;5043146;28;20057;-76
2023/04/22 00:16:32;;;;;;;13.02;8.07;;;;;;;;;;5044300;28;20132;-76
2023/04/22 00:18:58;;;;;;;11.75;7.05;;;;;;;;;;5036921;28;20061;-76
2023/04/22 00:21:26;;;;;;;12.88;7.50;;;;;;;;;;5029191;28;20505;-75
2023/04/22 00:23:52;;;;;;;12.90;7.65;;;;;;;;;;5032294;28;20054;-76
2023/04/22 00:26:19;;;;;;;12.95;8.23;;;;;;;;;;5043525;28;20171;-76
2023/04/22 00:28:45;;;;;;;15.52;8.63;;;;;;;;;;5042058;28;20049;-76
2023/04/22 00:31:12;;;;;;;13.98;8.57;;;;;;;;;;5041699;28;20503;-76
2023/04/22 00:33:38;;;;;;;14.20;8.75;;;;;;;;;;5023438;28;20065;-76
2023/04/22 00:36:04;;;;;;;13.73;7.95;;;;;;;;;;5038411;28;20057;-76
2023/04/22 00:38:31;;;;;;;14.45;8.60;;;;;;;;;;5020511;28;20524;-76
2023/04/22 00:40:58;;;;;;;13.70;8.13;;;;;;;;;;5026616;28;20141;-76
2023/04/22 00:43:24;;;;;;;12.75;7.95;;;;;;;;;;5031249;28;20637;-76
2023/04/22 00:45:50;;;;;;;13.70;8.27;;;;;;;;;;5027082;28;20132;-76
2023/04/22 00:48:17;;;;;;;15.60;8.73;;;;;;;;;;5035366;28;20054;-76
2023/04/22 00:50:43;;;;;;;12.93;8.07;;;;;;;;;;5013317;28;20050;-76
2023/04/22 00:53:11;;;;;;;14.02;8.50;;;;;;;;;;5015249;28;20053;-76
2023/04/22 00:55:40;;;;;;;14.20;8.27;;;;;;;;;;5022892;28;20054;-76
2023/04/22 00:58:07;;;;;;;14.75;9.52;;;;;;;;;;5025064;28;20487;-76
2023/04/22 01:00:33;;;;;;;16.83;8.68;;;;;;;;;;5023005;28;20468;-76
2023/04/22 01:03:00;;;;;;;14.00;8.70;;;;;;;;;;5026773;28;20057;-76
2023/04/22 01:05:29;;;;;;;15.73;9.32;;;;;;;;;;5038218;28;20053;-76
2023/04/22 01:07:56;;;;;;;15.48;9.30;;;;;;;;;;5042056;28;20149;-76
2023/04/22 01:10:22;;;;;;;16.23;9.45;;;;;;;;;;5026408;28;20057;-76
2023/04/22 01:12:49;;;;;;;15.77;8.80;;;;;;;;;;5012884;28;20461;-76
2023/04/22 01:15:15;;;;;;;13.57;8.02;;;;;;;;;;5013624;28;20114;-76
2023/04/22 01:17:42;;;;;;;14.90;8.90;;;;;;;;;;5018686;28;20065;-76
2023/04/22 01:20:09;;;;;;;14.02;9.10;;;;;;;;;;5032746;28;20049;-76
2023/04/22 01:22:39;;;;;;;12.32;8.05;;;;;;;;;;5029573;28;20054;-76
2023/04/22 01:25:05;;;;;;;13.43;7.82;;;;;;;;;;5032248;28;20058;-76
2023/04/22 01:27:32;;;;;;;13.60;8.00;;;;;;;;;;5016528;28;20066;-76
2023/04/22 01:29:59;;;;;;;13.20;7.32;;;;;;;;;;5027614;28;20045;-76
2023/04/22 01:32:25;;;;;;;11.88;6.50;;;;;;;;;;5031064;28;20127;-76
2023/04/22 01:34:52;;;;;;;10.32;6.60;;;;;;;;;;5024843;28;20093;-76
2023/04/22 01:37:18;;;;;;;9.73;6.15;;;;;;;;;;5021377;28;20050;-76
2023/04/22 01:39:45;;;;;;;10.60;5.85;;;;;;;;;;5029001;28;20439;-76
2023/04/22 01:42:11;;;;;;;10.43;6.15;;;;;;;;;;5042763;28;20333;-76
2023/04/22 01:44:38;;;;;;;10.05;5.90;;;;;;;;;;5045507;28;20053;-76
2023/04/22 01:47:04;;;;;;;11.18;5.93;;;;;;;;;;5013261;28;20195;-76
2023/04/22 01:49:31;;;;;;;11.77;6.80;;;;;;;;;;5042842;28;20439;-76
2023/04/22 01:51:57;;;;;;;10.30;5.70;;;;;;;;;;5036131;28;20054;-76
2023/04/22 01:54:24;;;;;;;12.50;6.88;;;;;;;;;;5032012;28;20058;-77
2023/04/22 01:56:51;;;;;;;11.13;6.63;;;;;;;;;;5034212;28;20046;-77
2023/04/22 01:59:18;;;;;;;10.93;6.55;;;;;;;;;;5021645;28;20066;-77
2023/04/22 02:01:44;;;;;;;10.63;6.45;;;;;;;;;;5026488;28;20049;-77
2023/04/22 02:04:11;;;;;;;11.57;6.72;;;;;;;;;;5034795;28;20057;-77
2023/04/22 02:06:37;;;;;;;12.98;7.50;;;;;;;;;;5023973;28;20139;-77
2023/04/22 02:09:04;;;;;;;12.40;6.88;;;;;;;;;;5040734;28;20098;-77
2023/04/22 02:11:30;;;;;;;10.07;6.18;;;;;;;;;;5024032;28;20054;-77
2023/04/22 02:13:56;;;;;;;8.70;5.20;;;;;;;;;;5043223;28;20055;-77
2023/04/22 02:16:22;;;;;;;8.25;5.30;;;;;;;;;;5032459;28;20058;-76
2023/04/22 02:18:49;;;;;;;9.13;4.82;;;;;;;;;;5025392;28;20058;-77
2023/04/22 02:21:16;;;;;;;7.75;4.40;;;;;;;;;;5025949;28;20086;-77
2023/04/22 02:23:42;;;;;;;6.53;4.03;;;;;;;;;;5037581;28;20053;-77
2023/04/22 02:26:08;;;;;;;7.88;4.65;;;;;;;;;;5044593;28;20520;-77
2023/04/22 02:28:35;;;;;;;6.28;3.80;;;;;;;;;;5033954;28;20062;-76
2023/04/22 02:31:01;;;;;;;8.50;3.65;;;;;;;;;;5046107;28;20056;-76
2023/04/22 02:33:27;;;;;;;6.32;3.70;;;;;;;;;;5040944;28;20057;-77
2023/04/22 02:35:54;;;;;;;5.88;3.65;;;;;;;;;;5044304;28;20049;-77
2023/04/22 02:38:20;;;;;;;6.00;3.47;;;;;;;;;;5021198;28;20461;-77
2023/04/22 02:40:46;;;;;;;7.50;3.67;;;;;;;;;;5023281;28;20503;-77
2023/04/22 02:43:13;;;;;;;7.28;4.57;;;;;;;;;;5026993;28;20060;-76
2023/04/22 02:45:39;;;;;;;7.55;4.53;;;;;;;;;;5034775;28;20056;-79
2023/04/22 02:48:06;;;;;;;6.63;4.05;;;;;;;;;;5030662;28;20050;-77
2023/04/22 02:50:32;;;;;;;7.80;4.82;;;;;;;;;;5044422;28;20064;-77
2023/04/22 02:52:59;;;;;;;7.47;4.53;;;;;;;;;;5026467;28;20049;-77
2023/04/22 02:55:25;;;;;;;6.13;4.20;;;;;;;;;;5011723;28;21400;-76
2023/04/22 02:57:52;;;;;;;7.15;4.90;;;;;;;;;;5021265;28;20054;-77
2023/04/22 03:00:18;;;;;;;6.80;4.50;;;;;;;;;;5026173;28;20054;-77
2023/04/22 03:02:44;;;;;;;7.38;4.40;;;;;;;;;;5032953;28;20065;-77
2023/04/22 03:05:11;;;;;;;9.00;4.72;;;;;;;;;;5046545;28;20049;-77
2023/04/22 03:07:38;;;;;;;7.40;4.40;;;;;;;;;;5030159;28;20089;-77
2023/04/22 03:10:04;;;;;;;7.90;5.25;;;;;;;;;;5005812;28;20102;-77
2023/04/22 03:12:31;;;;;;;8.02;5.10;;;;;;;;;;5015046;28;20058;-77
2023/04/22 03:14:59;;;;;;;8.10;5.00;;;;;;;;;;5010422;28;20078;-78
2023/04/22 03:17:26;;;;;;;7.43;4.55;;;;;;;;;;5012057;28;20057;-77
2023/04/22 03:19:53;;;;;;;8.68;5.00;;;;;;;;;;5037283;28;20092;-77
2023/04/22 03:22:19;;;;;;;8.65;5.57;;;;;;;;;;5043348;28;20054;-77
2023/04/22 03:24:46;;;;;;;9.52;5.82;;;;;;;;;;5042211;28;20057;-77
2023/04/22 03:27:12;;;;;;;9.65;6.13;;;;;;;;;;5041718;28;20046;-78
2023/04/22 03:29:39;;;;;;;10.30;6.03;;;;;;;;;;5025212;28;20057;-77
2023/04/22 03:32:05;;;;;;;8.10;5.32;;;;;;;;;;5032306;28;20053;-78
2023/04/22 03:34:32;;;;;;;8.15;5.30;;;;;;;;;;5037960;28;20100;-78
2023/04/22 03:36:58;;;;;;;9.50;5.80;;;;;;;;;;5036035;28;20598;-77
2023/04/22 03:39:24;;;;;;;10.38;5.57;;;;;;;;;;5027965;28;20614;-77
2023/04/22 03:41:51;;;;;;;7.78;5.22;;;;;;;;;;5046359;28;20056;-77
2023/04/22 03:44:17;;;;;;;7.97;5.10;;;;;;;;;;5045495;28;20148;-78
2023/04/22 03:46:43;;;;;;;8.00;5.10;;;;;;;;;;5027586;28;21089;-78
2023/04/22 03:49:10;;;;;;;8.02;5.38;;;;;;;;;;5024354;28;20049;-77
2023/04/22 03:51:37;;;;;;;9.10;5.78;;;;;;;;;;5046462;28;20064;-77
2023/04/22 03:54:03;;;;;;;8.23;5.00;;;;;;;;;;5045118;28;20059;-77
2023/04/22 03:56:29;;;;;;;8.18;4.90;;;;;;;;;;5007039;28;20145;-77
2023/04/22 03:58:56;;;;;;;8.80;5.18;;;;;;;;;;5019670;28;20057;-77
2023/04/22 04:01:22;;;;;;;8.70;5.35;;;;;;;;;;5035414;28;20116;-77
2023/04/22 04:03:48;;;;;;;9.38;5.90;;;;;;;;;;5022476;28;20511;-77
2023/04/22 04:06:15;;;;;;;9.60;5.43;;;;;;;;;;5037577;28;20090;-77
2023/04/22 04:08:41;;;;;;;10.13;5.75;;;;;;;;;;5010502;28;20061;-77
2023/04/22 04:11:08;;;;;;;10.30;5.82;;;;;;;;;;5022227;28;20113;-77
2023/04/22 04:13:35;;;;;;;8.95;6.20;;;;;;;;;;5030614;28;20050;-78
2023/04/22 04:16:02;;;;;;;9.20;5.43;;;;;;;;;;5035894;28;20081;-77
2023/04/22 04:18:29;;;;;;;14.30;6.85;;;;;;;;;;5044557;28;20108;-77
2023/04/22 04:20:55;;;;;;;11.82;6.93;;;;;;;;;;5011270;28;20058;-77
2023/04/22 04:23:22;;;;;;;11.63;7.05;;;;;;;;;;5029662;28;20060;-78
2023/04/22 04:25:48;;;;;;;14.43;6.78;;;;;;;;;;5018087;28;20060;-77
2023/04/22 04:28:16;;;;;;;12.10;7.22;;;;;;;;;;5031877;28;20515;-77
2023/04/22 04:30:42;;;;;;;12.30;7.78;;;;;;;;;;5036833;28;20053;-77
2023/04/22 04:33:10;;;;;;;14.10;7.95;;;;;;;;;;5026032;28;20149;-77
2023/04/22 04:35:37;;;;;;;13.68;7.75;;;;;;;;;;5044459;28;20053;-78
2023/04/22 04:38:04;;;;;;;14.40;8.20;;;;;;;;;;5020753;28;20061;-77
2023/04/22 04:40:31;;;;;;;11.80;7.05;;;;;;;;;;5026112;28;20054;-77
2023/04/22 04:43:01;;;;;;;12.77;7.07;;;;;;;;;;5021180;28;20209;-77
2023/04/22 04:45:30;;;;;;;14.50;7.45;;;;;;;;;;5039931;28;20866;-78
2023/04/22 04:47:57;;;;;;;13.88;7.32;;;;;;;;;;5040026;28;20084;-77
2023/04/22 04:50:26;;;;;;;14.32;7.30;;;;;;;;;;5024370;28;20136;-77
2023/04/22 04:52:53;;;;;;;13.23;7.07;;;;;;;;;;5022438;28;20061;-78
2023/04/22 04:55:19;;;;;;;13.00;7.47;;;;;;;;;;5041745;28;20057;-77
2023/04/22 04:57:46;;;;;;;14.90;6.90;;;;;;;;;;5037663;28;20060;-77
2023/04/22 05:00:15;;;;;;;12.15;7.05;;;;;;;;;;5033812;28;20133;-77
2023/04/22 05:02:41;;;;;;;11.70;6.68;;;;;;;;;;5043114;28;20065;-77
2023/04/22 05:05:08;;;;;;;12.80;7.13;;;;;;;;;;5043020;28;20064;-77
2023/04/22 05:07:35;;;;;;;11.93;7.38;;;;;;;;;;5039206;28;20060;-77
2023/04/22 05:10:04;;;;;;;14.73;7.28;;;;;;;;;;5023380;28;20102;-77
2023/04/22 05:12:30;;;;;;;14.50;7.00;;;;;;;;;;5023885;28;20132;-77
2023/04/22 05:15:00;;;;;;;12.05;7.10;;;;;;;;;;5019611;28;20058;-77
2023/04/22 05:17:27;;;;;;;11.90;6.80;;;;;;;;;;5007966;28;20061;-77
2023/04/22 05:19:53;;;;;;;11.93;6.68;;;;;;;;;;5044893;28;20112;-77
2023/04/22 05:22:20;;;;;;;12.32;5.97;;;;;;;;;;5022852;28;20093;-77
2023/04/22 05:24:46;;;;;;;11.40;6.35;;;;;;;;;;5009224;28;20057;-77
2023/04/22 05:27:12;;;;;;;9.57;6.15;;;;;;;;;;5016330;28;20084;-77
2023/04/22 05:29:39;;;;;;;10.75;5.88;;;;;;;;;;5043304;28;20054;-77
2023/04/22 05:32:06;;;;;;;10.68;6.50;;;;;;;;;;5044206;28;20124;-77
2023/04/22 05:34:34;;;;;;;10.00;6.22;;;;;;;;;;5031151;28;20054;-77
2023/04/22 05:37:04;;;;;;;12.68;7.38;;;;;;;;;;5038819;28;20589;-77
2023/04/22 05:39:30;;;;;;;12.57;6.90;;;;;;;;;;5042774;28;20058;-76
2023/04/22 05:41:59;;;;;;;14.20;7.47;;;;;;;;;;5044430;28;20065;-77
2023/04/22 05:44:25;;;;;;;13.40;7.65;;;;;;;;;;5010936;28;20062;-77
2023/04/22 05:46:52;;;;;;;14.35;7.60;;;;;;;;;;5023890;28;20050;-77
2023/04/22 05:49:18;;;;;;;11.68;7.43;;;;;;;;;;5024220;28;20096;-76
2023/04/22 05:51:44;;;;;;;15.55;8.07;;;;;;;;;;5025058;28;20064;-77
2023/04/22 05:54:11;;;;;;;11.50;7.47;;;;;;;;;;5040935;28;20057;-77
2023/04/22 05:56:37;;;;;;;12.65;7.43;;;;;;;;;;5019423;28;20065;-77
2023/04/22 05:59:03;;;;;;;12.20;7.47;;;;;;;;;;5011762;28;20061;-77
2023/04/22 06:01:30;;;;;;;14.02;7.93;;;;;;;;;;5022122;28;20058;-77
2023/04/22 06:03:56;;;;;;;16.40;8.15;;;;;;;;;;5023236;28;20152;-77
2023/04/22 06:06:23;;;;;;;14.60;8.60;;;;;;;;;;5023376;28;20061;-77
2023/04/22 06:08:49;;;;;;;13.23;8.68;;;;;;;;;;5018352;28;20513;-78
2023/04/22 06:11:16;;;;;;;16.45;9.45;;;;;;;;;;5020938;28;20058;-77
2023/04/22 06:13:42;;;;;;;19.55;10.40;;;;;;;;;;5024517;28;20042;-78
2023/04/22 06:16:08;;;;;;;14.07;8.77;;;;;;;;;;5024862;28;20066;-77
2023/04/22 06:18:35;;;;;;;15.20;8.73;;;;;;;;;;5022560;28;20060;-77
2023/04/22 06:21:03;;;;;;;17.80;9.43;;;;;;;;;;5038633;28;20062;-77
2023/04/22 06:23:30;;;;;;;19.30;10.88;;;;;;;;;;5034661;28;20073;-78
2023/04/22 06:25:57;;;;;;;22.80;12.52;;;;;;;;;;5046651;28;20050;-77
2023/04/22 06:28:23;;;;;;;26.50;14.98;;;;;;;;;;5045529;28;20052;-78
2023/04/22 06:30:50;;;;;;;36.63;16.75;;;;;;;;;;5040597;28;20070;-77
2023/04/22 06:33:16;;;;;;;31.42;16.08;;;;;;;;;;5008442;28;20054;-77
2023/04/22 06:35:42;;;;;;;32.20;17.27;;;;;;;;;;5015971;28;20051;-77
2023/04/22 06:38:09;;;;;;;33.20;17.70;;;;;;;;;;5018801;28;20050;-78
2023/04/22 06:40:35;;;;;;;32.75;17.63;;;;;;;;;;5024722;28;20062;-77
2023/04/22 06:43:02;;;;;;;35.35;19.13;;;;;;;;;;5046187;28;20057;-77
2023/04/22 06:45:28;;;;;;;33.85;17.90;;;;;;;;;;5042421;28;20517;-77
2023/04/22 06:47:55;;;;;;;35.10;18.13;;;;;;;;;;5028282;28;20046;-77
2023/04/22 06:50:21;;;;;;;33.10;18.33;;;;;;;;;;5029878;28;20059;-78
2023/04/22 06:52:48;;;;;;;28.38;17.20;;;;;;;;;;5013714;28;20593;-78
2023/04/22 06:55:14;;;;;;;30.75;18.17;;;;;;;;;;5014560;28;20062;-78
2023/04/22 06:57:40;;;;;;;31.83;18.25;;;;;;;;;;5037831;28;20592;-78
2023/04/22 07:00:07;;;;;;;31.10;18.20;;;;;;;;;;5016497;28;20072;-78
2023/04/22 07:02:33;;;;;;;34.50;19.60;;;;;;;;;;5027036;28;20512;-78
2023/04/22 07:05:00;;;;;;;31.02;18.85;;;;;;;;;;5027475;28;20062;-77
2023/04/22 07:07:26;;;;;;;32.08;18.42;;;;;;;;;;5020877;28;20554;-78
2023/04/22 07:09:53;;;;;;;31.27;18.50;;;;;;;;;;5026042;28;20834;-78
2023/04/22 07:12:19;;;;;;;33.38;19.52;;;;;;;;;;5026177;28;20050;-77
2023/04/22 07:14:47;;;;;;;32.90;19.00;;;;;;;;;;5025002;28;20057;-78
2023/04/22 07:17:14;;;;;;;32.15;19.40;;;;;;;;;;5027879;28;20155;-77
2023/04/22 07:19:40;;;;;;;29.88;18.92;;;;;;;;;;5025287;28;20592;-78
2023/04/22 07:22:07;;;;;;;32.60;19.30;;;;;;;;;;5027511;28;20508;-77
2023/04/22 07:24:33;;;;;;;34.15;18.85;;;;;;;;;;5017940;28;20129;-77
2023/04/22 07:27:01;;;;;;;30.08;18.17;;;;;;;;;;5014554;28;20058;-78
2023/04/22 07:29:27;;;;;;;30.60;17.83;;;;;;;;;;5009507;28;20082;-76
2023/04/22 07:31:53;;;;;;;31.35;18.52;;;;;;;;;;5013234;28;20072;-77
2023/04/22 07:34:20;;;;;;;28.08;17.00;;;;;;;;;;5028189;28;20136;-77
2023/04/22 07:36:48;;;;;;;31.67;18.90;;;;;;;;;;5022299;28;20054;-78
2023/04/22 07:39:14;;;;;;;26.42;17.40;;;;;;;;;;5022120;28;20054;-78
2023/04/22 07:41:41;;;;;;;26.17;15.85;;;;;;;;;;5007547;28;20089;-78
2023/04/22 07:44:09;;;;;;;24.25;15.73;;;;;;;;;;5006267;28;20051;-77
2023/04/22 07:46:35;;;;;;;27.20;15.95;;;;;;;;;;5006299;28;20054;-77
2023/04/22 07:49:02;;;;;;;23.70;13.65;;;;;;;;;;5025358;28;20058;-77
2023/04/22 07:51:28;;;;;;;23.50;14.63;;;;;;;;;;5032811;28;20050;-77
2023/04/22 07:53:55;;;;;;;22.70;14.25;;;;;;;;;;5046488;28;20061;-78
2023/04/22 07:56:21;;;;;;;21.65;14.60;;;;;;;;;;5018575;28;20058;-78
2023/04/22 07:58:47;;;;;;;21.20;14.27;;;;;;;;;;5022150;28;20542;-78
2023/04/22 08:01:14;;;;;;;21.05;13.20;;;;;;;;;;5020193;28;20141;-77
2023/04/22 08:03:43;;;;;;;16.98;9.85;;;;;;;;;;5022649;28;20050;-77
2023/04/22 08:06:10;;;;;;;16.30;10.20;;;;;;;;;;5023807;28;20053;-78
2023/04/22 08:08:36;;;;;;;14.32;9.48;;;;;;;;;;5032994;28;20464;-78
2023/04/22 08:11:02;;;;;;;17.15;10.18;;;;;;;;;;5047987;28;20329;-78
2023/04/22 08:13:29;;;;;;;14.60;8.73;;;;;;;;;;5047760;28;20691;-78
2023/04/22 08:15:55;;;;;;;14.73;8.80;;;;;;;;;;5021939;28;20082;-77
2023/04/22 08:18:22;;;;;;;13.68;8.65;;;;;;;;;;5009872;28;20057;-78
2023/04/22 08:20:49;;;;;;;13.93;8.95;;;;;;;;;;5014679;28;20231;-75
2023/04/22 08:23:15;;;;;;;14.02;8.95;;;;;;;;;;5023800;28;20053;-75
2023/04/22 08:25:41;;;;;;;14.68;9.07;;;;;;;;;;5033766;28;20428;-75
2023/04/22 08:28:07;;;;;;;13.52;9.15;;;;;;;;;;5044010;28;20087;-77
2023/04/22 08:30:34;;;;;;;13.70;9.20;;;;;;;;;;5041134;28;20544;-75
2023/04/22 08:33:00;;;;;;;13.32;8.70;;;;;;;;;;5014329;28;20053;-74
2023/04/22 08:35:27;;;;;;;14.82;7.90;;;;;;;;;;5017652;28;20060;-75
2023/04/22 08:37:53;;;;;;;12.68;7.70;;;;;;;;;;5019846;28;20064;-75
2023/04/22 08:40:19;;;;;;;10.82;7.43;;;;;;;;;;5016636;28;20058;-75
2023/04/22 08:42:46;;;;;;;13.63;8.05;;;;;;;;;;5013491;28;20058;-75
2023/04/22 08:45:13;;;;;;;12.07;8.40;;;;;;;;;;5015113;28;21020;-75
2023/04/22 08:47:40;;;;;;;10.70;7.45;;;;;;;;;;5024627;28;20053;-75
2023/04/22 08:50:08;;;;;;;13.18;7.88;;;;;;;;;;5019946;28;20781;-74
2023/04/22 08:52:34;;;;;;;11.82;8.32;;;;;;;;;;5009692;28;20061;-77
2023/04/22 08:55:01;;;;;;;14.07;8.40;;;;;;;;;;5023627;28;20042;-75
2023/04/22 08:57:27;;;;;;;14.48;7.82;;;;;;;;;;5013696;28;20077;-75
2023/04/22 08:59:54;;;;;;;10.88;7.50;;;;;;;;;;5026702;28;20054;-75
2023/04/22 09:02:22;;;;;;;12.52;8.07;;;;;;;;;;5034626;28;20088;-75
2023/04/22 09:04:49;;;;;;;12.18;8.15;;;;;;;;;;5043858;28;20045;-75
2023/04/22 09:07:19;;;;;;;11.43;7.25;;;;;;;;;;5028255;28;20054;-75
2023/04/22 09:09:46;;;;;;;11.25;7.57;;;;;;;;;;5015410;28;20050;-75
2023/04/22 09:12:13;;;;;;;11.32;7.57;;;;;;;;;;5041856;28;21013;-75
2023/04/22 09:14:40;;;;;;;11.30;7.07;;;;;;;;;;5042296;28;20053;-75
2023/04/22 09:17:06;;;;;;;12.02;7.13;;;;;;;;;;5043525;28;20483;-75
2023/04/22 09:19:33;;;;;;;9.63;6.93;;;;;;;;;;5042762;28;20053;-75
2023/04/22 09:21:59;;;;;;;12.05;7.28;;;;;;;;;;5037117;28;20054;-75
2023/04/22 09:24:25;;;;;;;9.65;7.10;;;;;;;;;;5028478;28;20057;-75
2023/04/22 09:26:54;;;;;;;10.40;6.88;;;;;;;;;;5022953;28;20054;-75
2023/04/22 09:29:20;;;;;;;10.20;6.60;;;;;;;;;;5037695;28;20475;-75
2023/04/22 09:31:48;;;;;;;15.57;9.50;;;;;;;;;;5041508;28;20064;-75
2023/04/22 09:34:14;;;;;;;13.40;8.80;;;;;;;;;;5042388;28;20115;-75
2023/04/22 09:36:42;;;;;;;12.50;8.20;;;;;;;;;;5042809;28;20623;-75
2023/04/22 09:39:08;;;;;;;10.85;6.63;;;;;;;;;;5028803;28;20049;-75
2023/04/22 09:41:38;;;;;;;8.43;5.80;;;;;;;;;;5020611;28;20081;-75
2023/04/22 09:44:09;;;;;;;14.77;9.52;;;;;;;;;;5003509;28;20251;-75
2023/04/22 09:46:35;;;;;;;14.20;9.60;;;;;;;;;;5021238;28;20054;-75
2023/04/22 09:49:02;;;;;;;14.45;10.10;;;;;;;;;;5031116;28;20063;-75
2023/04/22 09:51:29;;;;;;;10.95;7.85;;;;;;;;;;5028108;28;20560;-75
2023/04/22 09:53:59;;;;;;;11.82;8.98;;;;;;;;;;5017050;28;20054;-75
2023/04/22 09:56:29;;;;;;;;;;;;;;;;;;5043447;28;20049;-75
2023/04/22 09:58:56;;;;;;;11.80;7.80;;;;;;;;;;5034958;28;43734;-75
2023/04/22 10:01:33;;;;;;;11.38;7.70;;;;;;;;;;5006682;28;20054;-75
2023/04/22 10:03:59;;;;;;;10.70;7.28;;;;;;;;;;5006099;28;20066;-75
2023/04/22 10:06:27;;;;;;;10.57;7.95;;;;;;;;;;5015401;28;20109;-75
2023/04/22 10:08:53;;;;;;;11.48;7.97;;;;;;;;;;5018847;28;20145;-74
2023/04/22 10:11:19;;;;;;;11.43;7.88;;;;;;;;;;5022859;28;20058;-76
2023/04/22 10:13:46;;;;;;;9.57;6.88;;;;;;;;;;5033636;28;20053;-75
2023/04/22 10:16:12;;;;;;;10.80;7.38;;;;;;;;;;5020164;28;20080;-75
2023/04/22 10:18:39;;;;;;;11.63;7.38;;;;;;;;;;5035766;28;20448;-75
2023/04/22 10:21:06;;;;;;;9.93;7.03;;;;;;;;;;5027935;28;20145;-74
2023/04/22 10:23:32;;;;;;;11.10;7.78;;;;;;;;;;5032179;28;20136;-74
2023/04/22 10:25:59;;;;;;;11.18;8.27;;;;;;;;;;5028812;28;20060;-74
2023/04/22 10:28:26;;;;;;;13.32;8.48;;;;;;;;;;5030986;28;20668;-74
2023/04/22 10:30:53;;;;;;;12.98;8.73;;;;;;;;;;5033656;28;20097;-74
2023/04/22 10:33:19;;;;;;;12.82;9.07;;;;;;;;;;5014849;28;20054;-74
2023/04/22 10:36:05;;;;;;;11.45;8.20;;;;;;;;;;5027850;28;20060;-74
2023/04/22 10:38:39;;;;;;;12.85;8.98;;;;;;;;;;5019876;28;20059;-74
2023/04/22 10:41:05;;;;;;;12.25;9.13;;;;;;;;;;5018946;28;20861;-74
2023/04/22 10:43:42;;;;;;;13.88;9.30;;;;;;;;;;5044790;28;20057;-74
2023/04/22 10:46:27;;;;;;;13.68;9.73;;;;;;;;;;5045226;28;20144;-74
2023/04/22 10:48:55;;;;;;;11.68;8.65;;;;;;;;;;5023226;28;20105;-75
2023/04/22 10:51:40;;;;;;;14.00;9.43;;;;;;;;;;5021316;28;20057;-74
2023/04/22 10:54:07;;;;;;;12.70;8.85;;;;;;;;;;5039220;28;20053;-74
2023/04/22 10:56:33;;;;;;;13.80;9.57;;;;;;;;;;5038818;28;20136;-74
2023/04/22 10:59:14;;;;;;;13.02;9.50;;;;;;;;;;5018444;28;20559;-75
2023/04/22 11:01:40;;;;;;;15.80;9.65;;;;;;;;;;5005264;28;20062;-74
2023/04/22 11:04:24;;;;;;;12.57;9.73;;;;;;;;;;5006595;28;20608;-74
2023/04/22 11:07:10;;;;;;;15.27;10.07;;;;;;;;;;5018051;28;20131;-74
2023/04/22 11:09:40;;;;;;;13.27;10.35;;;;;;;;;;5024024;28;20528;-74
2023/04/22 11:12:25;;;;;;;15.07;10.75;;;;;;;;;;5033479;28;20068;-75
2023/04/22 11:14:51;;;;;;;15.15;11.35;;;;;;;;;;5033258;28;20148;-74
2023/04/22 11:17:18;;;;;;;14.30;11.55;;;;;;;;;;5023636;28;20128;-74
2023/04/22 11:19:45;;;;;;;16.40;11.93;;;;;;;;;;5020892;28;20042;-74
2023/04/22 11:22:12;;;;;;;14.05;10.75;;;;;;;;;;5034225;28;20053;-74
2023/04/22 11:24:38;;;;;;;17.40;11.30;;;;;;;;;;5031046;28;20841;-74
2023/04/22 11:27:04;;;;;;;20.35;11.52;;;;;;;;;;5024413;28;20056;-74
2023/04/22 11:29:30;;;;;;;15.77;11.23;;;;;;;;;;5020004;28;20066;-74
2023/04/22 11:31:57;;;;;;;13.07;10.68;;;;;;;;;;5009675;28;20718;-74
2023/04/22 11:34:23;;;;;;;13.63;10.40;;;;;;;;;;5019781;28;20054;-74
2023/04/22 11:36:50;;;;;;;15.98;10.60;;;;;;;;;;5004905;28;20057;-74
2023/04/22 11:39:17;;;;;;;14.93;10.20;;;;;;;;;;5015034;28;20057;-75
2023/04/22 11:41:45;;;;;;;12.98;9.93;;;;;;;;;;5017017;28;20062;-76
2023/04/22 11:44:13;;;;;;;12.88;9.52;;;;;;;;;;5024936;28;20053;-75
2023/04/22 11:46:42;;;;;;;16.17;10.65;;;;;;;;;;5031163;28;20514;-74
2023/04/22 11:49:15;;;;;;;16.33;10.35;;;;;;;;;;5026006;28;20058;-73
2023/04/22 11:51:54;;;;;;;16.27;11.20;;;;;;;;;;5023716;28;20077;-74
2023/04/22 11:54:29;;;;;;;15.15;10.35;;;;;;;;;;5015749;28;20142;-73
2023/04/22 11:56:56;;;;;;;19.35;10.70;;;;;;;;;;5007603;28;20984;-74
2023/04/22 11:59:25;;;;;;;19.30;11.48;;;;;;;;;;5007097;28;20054;-74
2023/04/22 12:01:51;;;;;;;16.05;11.60;;;;;;;;;;5019177;28;20058;-74
2023/04/22 12:04:21;;;;;;;17.45;11.80;;;;;;;;;;5032459;28;20057;-74
2023/04/22 12:06:50;;;;;;;17.58;11.80;;;;;;;;;;5021604;28;20057;-75
2023/04/22 12:09:17;;;;;;;18.23;13.20;;;;;;;;;;5025475;28;20990;-74
2023/04/22 12:11:43;;;;;;;18.80;12.77;;;;;;;;;;5038505;28;20052;-74
2023/04/22 12:14:10;;;;;;;18.98;13.13;;;;;;;;;;5026684;28;20053;-74
2023/04/22 12:16:40;;;;;;;17.25;13.13;;;;;;;;;;5022497;28;20153;-74
2023/04/22 12:19:06;;;;;;;20.02;12.73;;;;;;;;;;5037837;28;20135;-75
2023/04/22 12:21:33;;;;;;;16.77;12.35;;;;;;;;;;5023375;28;20098;-74
2023/04/22 12:24:03;;;;;;;18.50;13.18;;;;;;;;;;5019479;28;20061;-75
2023/04/22 12:26:30;;;;;;;17.05;12.20;;;;;;;;;;5028009;28;20054;-75
2023/04/22 12:28:57;;;;;;;19.35;12.95;;;;;;;;;;5022564;28;20100;-74
2023/04/22 12:31:24;;;;;;;18.17;13.13;;;;;;;;;;5020557;28;20183;-74
2023/04/22 12:33:50;;;;;;;19.20;11.68;;;;;;;;;;5016894;28;20112;-74
2023/04/22 12:36:19;;;;;;;16.58;11.98;;;;;;;;;;5022876;28;20092;-74
2023/04/22 12:38:46;;;;;;;17.33;11.30;;;;;;;;;;5021766;28;20050;-75
2023/04/22 12:41:13;;;;;;;19.73;12.45;;;;;;;;;;5026278;28;20480;-75
2023/04/22 12:43:39;;;;;;;19.58;12.38;;;;;;;;;;5033815;28;20057;-75
2023/04/22 12:46:06;;;;;;;18.98;12.25;;;;;;;;;;5025136;28;20060;-75
2023/04/22 12:48:34;;;;;;;17.08;11.63;;;;;;;;;;5022016;28;20054;-75
2023/04/22 12:51:01;;;;;;;18.30;11.55;;;;;;;;;;5019926;28;20134;-75
2023/04/22 12:53:27;;;;;;;18.65;12.55;;;;;;;;;;5021914;28;20050;-75
2023/04/22 12:55:54;;;;;;;16.25;11.50;;;;;;;;;;5017505;28;20054;-76
2023/04/22 12:58:21;;;;;;;20.33;12.25;;;;;;;;;;5032533;28;20064;-74
2023/04/22 13:00:47;;;;;;;19.77;12.35;;;;;;;;;;5015407;28;20082;-75
2023/04/22 13:03:14;;;;;;;18.98;12.57;;;;;;;;;;5018314;28;20091;-75
2023/04/22 13:05:40;;;;;;;19.55;12.85;;;;;;;;;;5029341;28;20053;-76
2023/04/22 13:08:07;;;;;;;19.98;12.50;;;;;;;;;;5034030;28;20058;-76
2023/04/22 13:10:33;;;;;;;17.52;12.20;;;;;;;;;;5019056;28;20073;-75
2023/04/22 13:13:03;;;;;;;19.08;12.38;;;;;;;;;;5008632;28;20058;-75
2023/04/22 13:15:43;;;;;;;18.90;12.52;;;;;;;;;;5032142;28;20064;-75
2023/04/22 13:18:09;;;;;;;18.42;12.32;;;;;;;;;;5041543;28;20535;-78
2023/04/22 13:20:36;;;;;;;20.13;12.80;;;;;;;;;;5034698;28;20062;-76
2023/04/22 13:23:05;;;;;;;21.73;14.35;;;;;;;;;;5019168;28;20058;-76
2023/04/22 13:25:31;;;;;;;22.48;15.18;;;;;;;;;;5016612;28;21104;-76
2023/04/22 13:27:58;;;;;;;21.40;13.75;;;;;;;;;;5027511;28;20057;-76
2023/04/22 13:30:24;;;;;;;22.15;14.35;;;;;;;;;;5022074;28;20058;-75
2023/04/22 13:32:51;;;;;;;23.58;14.60;;;;;;;;;;5033388;28;20061;-75
2023/04/22 13:35:17;;;;;;;21.02;13.95;;;;;;;;;;5027340;28;20053;-76
2023/04/22 13:37:45;;;;;;;19.65;13.05;;;;;;;;;;5025484;28;20066;-75
2023/04/22 13:40:15;;;;;;;19.02;12.80;;;;;;;;;;5023449;28;20053;-75
2023/04/22 13:42:43;;;;;;;;;;;;;;;;;;5026450;28;20057;-75
2023/04/22 13:45:09;;;;;;;25.95;13.52;;;;;;;;;;5028649;28;46558;-75
2023/04/22 13:47:36;;;;;;;21.13;13.70;;;;;;;;;;5042211;28;20061;-76
2023/04/22 13:50:04;;;;;;;37.70;15.10;;;;;;;;;;5031159;28;20061;-76
2023/04/22 13:52:30;;;;;;;21.27;15.00;;;;;;;;;;5025014;28;20054;-76
2023/04/22 13:54:56;;;;;;;20.50;13.95;;;;;;;;;;5023781;28;20065;-76
2023/04/22 13:57:23;;;;;;;23.30;15.18;;;;;;;;;;5015846;28;20073;-75
2023/04/22 13:59:49;;;;;;;21.67;15.15;;;;;;;;;;5027203;28;20053;-75
2023/04/22 14:02:16;;;;;;;22.50;15.10;;;;;;;;;;5044812;28;20058;-75
2023/04/22 14:04:42;;;;;;;23.27;15.05;;;;;;;;;;5044931;28;20108;-76
2023/04/22 14:07:09;;;;;;;19.83;14.32;;;;;;;;;;5046362;28;20184;-75
2023/04/22 14:09:36;;;;;;;20.00;14.70;;;;;;;;;;5018739;28;20136;-76
2023/04/22 14:12:06;;;;;;;21.05;13.93;;;;;;;;;;5019248;28;20053;-75
2023/04/22 14:14:32;;;;;;;19.63;14.23;;;;;;;;;;5019204;28;20185;-76
2023/04/22 14:16:59;;;;;;;22.15;14.95;;;;;;;;;;5017881;28;20545;-76
2023/04/22 14:19:27;;;;;;;20.63;15.30;;;;;;;;;;5025727;28;20058;-76
2023/04/22 14:21:54;;;;;;;22.83;14.88;;;;;;;;;;5026656;28;20060;-75
2023/04/22 14:24:22;;;;;;;20.52;15.05;;;;;;;;;;5045354;28;20056;-76
2023/04/22 14:26:48;;;;;;;21.85;15.23;;;;;;;;;;5035312;28;20057;-76
2023/04/22 14:29:15;;;;;;;24.08;15.68;;;;;;;;;;5007469;28;20062;-76